createdAt,value
2023-04-21T00:01:44.752Z,2.27
2023-04-21T00:04:15.210Z,2.63
2023-04-21T00:06:41.970Z,2.53
2023-04-21T00:09:08.933Z,2.53
2023-04-21T00:11:35.917Z,2.57
2023-04-21T00:14:02.624Z,2.50
2023-04-21T00:16:29.255Z,2.97
2023-04-21T00:18:55.847Z,4.03
2023-04-21T00:21:22.561Z,2.37
2023-04-21T00:23:49.998Z,2.63
2023-04-21T00:26:16.706Z,2.13
2023-04-21T00:28:45.186Z,2.43
2023-04-21T00:31:11.837Z,4.00
2023-04-21T00:33:38.539Z,2.53
2023-04-21T00:36:05.421Z,2.77
2023-04-21T00:38:32.111Z,1.83
2023-04-21T00:40:58.800Z,2.23
2023-04-21T00:43:25.786Z,4.87
2023-04-21T00:45:54.313Z,2.33
2023-04-21T00:48:21.050Z,2.37
2023-04-21T00:50:47.941Z,2.77
2023-04-21T00:53:15.372Z,3.37
2023-04-21T00:55:42.250Z,3.17
2023-04-21T00:58:08.981Z,1.87
2023-04-21T01:00:36.407Z,3.07
2023-04-21T01:03:05.680Z,3.30
2023-04-21T01:05:32.640Z,2.00
2023-04-21T01:08:00.791Z,4.23
2023-04-21T01:10:27.381Z,2.67
2023-04-21T01:12:54.032Z,3.30
2023-04-21T01:15:20.990Z,2.70
2023-04-21T01:17:47.669Z,2.60
2023-04-21T01:20:15.225Z,3.47
2023-04-21T01:22:42.837Z,2.57
2023-04-21T01:25:09.964Z,3.13
2023-04-21T01:27:36.681Z,3.30
2023-04-21T01:30:05.159Z,4.80
2023-04-21T01:32:31.971Z,1.87
2023-04-21T01:34:59.483Z,2.07
2023-04-21T01:37:29.448Z,3.70
2023-04-21T01:39:59.294Z,2.43
2023-04-21T01:42:29.108Z,3.90
2023-04-21T01:44:59.344Z,2.87
2023-04-21T01:47:26.238Z,3.13
2023-04-21T01:49:53.534Z,2.67
2023-04-21T01:52:20.800Z,2.40
2023-04-21T01:54:47.548Z,2.87
2023-04-21T01:57:14.741Z,5.67
2023-04-21T01:59:41.507Z,4.13
2023-04-21T02:02:08.493Z,2.73
2023-04-21T02:04:35.799Z,2.23
2023-04-21T02:07:02.816Z,3.27
2023-04-21T02:09:29.563Z,3.80
2023-04-21T02:11:57.189Z,2.23
2023-04-21T02:14:25.076Z,4.67
2023-04-21T02:16:51.760Z,3.37
2023-04-21T02:19:18.770Z,1.83
2023-04-21T02:21:45.714Z,1.73
2023-04-21T02:24:12.426Z,3.27
2023-04-21T02:26:39.126Z,2.57
2023-04-21T02:29:05.771Z,2.40
2023-04-21T02:33:59.461Z,2.97
2023-04-21T02:36:26.227Z,3.37
2023-04-21T02:38:57.117Z,3.50
2023-04-21T02:41:24.187Z,3.30
2023-04-21T02:43:50.822Z,2.67
2023-04-21T02:46:17.433Z,3.37
2023-04-21T02:48:44.040Z,2.20
2023-04-21T02:51:15.655Z,1.87
2023-04-21T02:53:42.461Z,3.27
2023-04-21T02:56:09.662Z,3.70
2023-04-21T02:58:36.789Z,1.53
2023-04-21T03:01:04.781Z,2.70
2023-04-21T03:03:32.305Z,1.50
2023-04-21T03:06:05.790Z,2.97
2023-04-21T03:08:32.602Z,3.57
2023-04-21T03:10:59.559Z,2.40
2023-04-21T03:13:26.189Z,3.87
2023-04-21T03:15:52.858Z,1.40
2023-04-21T03:18:19.500Z,2.03
2023-04-21T03:20:46.131Z,3.17
2023-04-21T03:23:12.859Z,3.60
2023-04-21T03:25:39.598Z,2.70
2023-04-21T03:28:06.189Z,3.03
2023-04-21T03:30:33.027Z,3.97
2023-04-21T03:32:59.804Z,2.30
2023-04-21T03:35:26.876Z,2.13
2023-04-21T03:37:53.453Z,2.83
2023-04-21T03:40:20.766Z,2.73
2023-04-21T03:42:48.379Z,2.80
2023-04-21T03:45:15.002Z,2.87
2023-04-21T03:47:41.613Z,3.80
2023-04-21T03:50:08.428Z,3.10
2023-04-21T03:52:34.991Z,2.27
2023-04-21T03:55:01.551Z,4.87
2023-04-21T03:57:28.180Z,2.93
2023-04-21T03:59:54.821Z,1.60
2023-04-21T04:02:21.573Z,3.27
2023-04-21T04:04:48.968Z,3.00
2023-04-21T04:07:17.459Z,2.33
2023-04-21T04:09:44.504Z,1.27
2023-04-21T04:12:11.795Z,2.17
2023-04-21T04:14:39.370Z,3.13
2023-04-21T04:17:05.979Z,2.43
2023-04-21T04:19:32.843Z,1.83
2023-04-21T04:22:02.670Z,3.40
2023-04-21T04:24:29.535Z,2.50
2023-04-21T04:26:57.720Z,3.33
2023-04-21T04:29:24.309Z,2.80
2023-04-21T04:31:51.140Z,2.20
2023-04-21T04:34:18.014Z,3.37
2023-04-21T04:36:45.444Z,3.53
2023-04-21T04:39:12.387Z,2.63
2023-04-21T04:41:39.221Z,1.70
2023-04-21T04:44:06.050Z,1.97
2023-04-21T04:46:32.971Z,2.87
2023-04-21T04:49:01.436Z,4.50
2023-04-21T04:51:28.213Z,4.37
2023-04-21T04:53:54.862Z,1.90
2023-04-21T04:56:21.991Z,3.17
2023-04-21T04:58:48.615Z,1.47
2023-04-21T05:01:18.777Z,1.93
2023-04-21T05:03:46.060Z,2.60
2023-04-21T05:06:13.976Z,1.37
2023-04-21T05:08:41.412Z,2.23
2023-04-21T05:11:08.228Z,2.70
2023-04-21T05:13:35.424Z,2.07
2023-04-21T05:16:02.726Z,2.37
2023-04-21T05:18:29.823Z,3.73
2023-04-21T05:20:56.625Z,2.60
2023-04-21T05:23:23.850Z,1.97
2023-04-21T05:25:50.470Z,2.67
2023-04-21T05:28:17.046Z,1.93
2023-04-21T05:30:43.930Z,3.00
2023-04-21T05:33:10.670Z,4.43
2023-04-21T05:35:38.114Z,1.80
2023-04-21T05:38:05.937Z,1.87
2023-04-21T05:40:32.872Z,2.27
2023-04-21T05:42:59.485Z,2.55
2023-04-21T05:45:26.072Z,2.30
2023-04-21T05:47:52.752Z,2.63
2023-04-21T05:53:09.838Z,2.90
2023-04-21T05:55:37.182Z,2.13
2023-04-21T05:58:04.225Z,1.20
2023-04-21T06:00:30.907Z,1.23
2023-04-21T06:02:57.691Z,2.70
2023-04-21T06:05:24.450Z,1.63
2023-04-21T06:07:51.127Z,3.60
2023-04-21T06:10:18.582Z,2.33
2023-04-21T06:12:45.538Z,2.65
2023-04-21T06:15:12.193Z,1.73
2023-04-21T06:17:38.828Z,2.35
2023-04-21T06:20:06.242Z,3.45
2023-04-21T06:22:33.566Z,2.00
2023-04-21T06:25:00.671Z,3.90
2023-04-21T06:27:27.429Z,1.77
2023-04-21T06:29:57.148Z,2.75
2023-04-21T06:32:23.869Z,2.53
2023-04-21T06:34:50.724Z,2.03
2023-04-21T06:37:17.740Z,2.53
2023-04-21T06:39:44.394Z,2.55
2023-04-21T06:42:11.475Z,2.70
2023-04-21T06:44:42.941Z,3.30
2023-04-21T06:47:09.769Z,3.47
2023-04-21T06:49:37.429Z,1.85
2023-04-21T06:52:04.791Z,4.13
2023-04-21T06:54:31.633Z,1.58
2023-04-21T06:57:00.312Z,2.20
2023-04-21T06:59:27.837Z,2.28
2023-04-21T07:01:54.584Z,2.20
2023-04-21T07:04:21.705Z,2.45
2023-04-21T07:06:50.406Z,2.15
2023-04-21T07:09:18.445Z,4.38
2023-04-21T07:11:45.633Z,2.50
2023-04-21T07:14:12.257Z,1.65
2023-04-21T07:16:39.294Z,2.83
2023-04-21T07:19:06.029Z,1.98
2023-04-21T07:21:36.102Z,2.38
2023-04-21T07:24:03.431Z,2.78
2023-04-21T07:26:31.128Z,3.50
2023-04-21T07:28:58.681Z,1.70
2023-04-21T07:33:53.454Z,1.75
2023-04-21T07:36:20.337Z,2.42
2023-04-21T07:38:47.348Z,1.88
2023-04-21T07:41:14.303Z,1.52
2023-04-21T07:43:41.486Z,1.63
2023-04-21T07:46:08.514Z,1.65
2023-04-21T07:48:35.256Z,3.20
2023-04-21T07:51:03.712Z,2.03
2023-04-21T07:53:31.546Z,3.05
2023-04-21T07:55:58.894Z,2.13
2023-04-21T07:58:25.569Z,2.22
2023-04-21T08:00:52.364Z,1.67
2023-04-21T08:03:23.747Z,1.58
2023-04-21T08:05:51.645Z,2.47
2023-04-21T08:08:21.857Z,2.10
2023-04-21T08:10:51.504Z,1.80
2023-04-21T08:13:18.562Z,2.53
2023-04-21T08:15:45.332Z,1.38
2023-04-21T08:18:12.104Z,1.55
2023-04-21T08:20:41.270Z,1.55
2023-04-21T08:23:08.375Z,2.35
2023-04-21T08:25:35.346Z,1.88
2023-04-21T08:28:02.262Z,2.55
2023-04-21T08:30:29.475Z,2.22
2023-04-21T08:32:56.212Z,0.90
2023-04-21T08:35:23.261Z,1.60
2023-04-21T08:37:51.008Z,1.20
2023-04-21T08:40:19.336Z,1.30
2023-04-21T08:42:48.612Z,1.13
2023-04-21T08:45:18.190Z,0.90
2023-04-21T08:47:45.880Z,1.90
2023-04-21T08:50:14.722Z,2.30
2023-04-21T08:52:41.479Z,1.70
2023-04-21T08:55:09.781Z,0.93
2023-04-21T08:57:36.714Z,1.10
2023-04-21T09:00:06.574Z,1.42
2023-04-21T09:03:00.855Z,0.85
2023-04-21T09:05:39.568Z,1.02
2023-04-21T09:08:14.344Z,1.38
2023-04-21T09:10:46.458Z,2.60
2023-04-21T09:13:15.038Z,1.17
2023-04-21T09:15:44.284Z,1.33
2023-04-21T09:18:20.580Z,1.10
2023-04-21T09:20:49.570Z,1.75
2023-04-21T09:23:16.953Z,1.67
2023-04-21T09:25:46.181Z,1.48
2023-04-21T09:28:14.566Z,1.05
2023-04-21T09:30:43.156Z,1.75
2023-04-21T09:33:28.029Z,1.20
2023-04-21T09:36:01.548Z,1.48
2023-04-21T09:38:28.282Z,2.25
2023-04-21T09:40:58.980Z,1.20
2023-04-21T09:43:26.480Z,1.08
2023-04-21T09:45:55.931Z,1.73
2023-04-21T09:48:26.128Z,0.77
2023-04-21T09:53:37.580Z,2.13
2023-04-21T09:56:06.741Z,0.95
2023-04-21T09:58:58.537Z,0.88
2023-04-21T10:01:27.284Z,1.20
2023-04-21T10:03:56.227Z,1.27
2023-04-21T10:06:23.457Z,1.27
2023-04-21T10:08:51.038Z,1.58
2023-04-21T10:11:18.964Z,1.42
2023-04-21T10:13:46.937Z,2.80
2023-04-21T10:16:17.622Z,0.75
2023-04-21T10:18:45.932Z,0.98
2023-04-21T10:21:19.373Z,2.35
2023-04-21T10:23:48.354Z,1.45
2023-04-21T10:26:19.045Z,1.30
2023-04-21T10:28:48.530Z,1.13
2023-04-21T10:31:21.891Z,1.17
2023-04-21T10:34:09.775Z,0.90
2023-04-21T10:36:51.786Z,0.70
2023-04-21T10:39:45.245Z,1.65
2023-04-21T10:42:24.546Z,1.80
2023-04-21T10:44:53.533Z,0.68
2023-04-21T10:47:41.445Z,0.68
2023-04-21T10:50:20.240Z,1.45
2023-04-21T10:52:53.130Z,1.10
2023-04-21T10:55:20.955Z,1.70
2023-04-21T10:57:48.118Z,1.38
2023-04-21T11:00:17.513Z,1.48
2023-04-21T11:02:46.412Z,1.10
2023-04-21T11:05:14.173Z,0.73
2023-04-21T11:07:40.939Z,0.45
2023-04-21T11:10:08.548Z,1.20
2023-04-21T11:12:39.161Z,0.70
2023-04-21T11:15:08.201Z,1.27
2023-04-21T11:17:36.076Z,0.50
2023-04-21T11:20:04.556Z,1.40
2023-04-21T11:22:31.291Z,0.85
2023-04-21T11:24:58.602Z,0.95
2023-04-21T11:27:30.031Z,1.00
2023-04-21T11:30:00.968Z,0.40
2023-04-21T11:32:29.437Z,0.60
2023-04-21T11:34:56.586Z,0.55
2023-04-21T11:37:27.874Z,1.10
2023-04-21T11:39:59.833Z,0.50
2023-04-21T11:42:27.230Z,0.80
2023-04-21T11:44:57.520Z,0.50
2023-04-21T11:47:26.194Z,0.95
2023-04-21T11:50:01.730Z,0.73
2023-04-21T11:52:32.961Z,0.65
2023-04-21T11:55:11.688Z,1.10
2023-04-21T11:57:40.861Z,1.10
2023-04-21T12:00:16.802Z,1.08
2023-04-21T12:02:44.184Z,0.60
2023-04-21T12:05:13.189Z,0.82
2023-04-21T12:07:43.589Z,1.85
2023-04-21T12:10:14.593Z,1.17
2023-04-21T12:12:42.746Z,0.93
2023-04-21T12:15:11.302Z,1.15
2023-04-21T12:17:43.459Z,0.65
2023-04-21T12:20:10.735Z,0.32
2023-04-21T12:22:37.983Z,0.60
2023-04-21T12:25:05.731Z,0.68
2023-04-21T12:27:32.408Z,0.52
2023-04-21T12:29:59.144Z,0.63
2023-04-21T12:32:26.264Z,0.55
2023-04-21T12:34:53.001Z,0.52
2023-04-21T12:37:19.666Z,1.27
2023-04-21T12:39:46.307Z,0.50
2023-04-21T12:42:13.045Z,1.77
2023-04-21T12:44:40.598Z,1.80
2023-04-21T12:47:07.373Z,1.05
2023-04-21T12:49:34.058Z,0.32
2023-04-21T12:52:00.710Z,0.98
2023-04-21T12:54:27.383Z,0.47
2023-04-21T12:56:54.332Z,0.40
2023-04-21T12:59:23.034Z,0.88
2023-04-21T13:01:50.999Z,0.38
2023-04-21T13:04:18.148Z,1.80
2023-04-21T13:06:45.029Z,0.60
2023-04-21T13:09:11.711Z,0.75
2023-04-21T13:11:38.381Z,1.05
2023-04-21T13:14:05.145Z,0.50
2023-04-21T13:16:31.949Z,0.65
2023-04-21T13:18:58.929Z,0.43
2023-04-21T13:21:26.553Z,0.60
2023-04-21T13:23:53.537Z,1.10
2023-04-21T13:26:20.694Z,1.45
2023-04-21T13:28:47.436Z,0.57
2023-04-21T13:31:14.709Z,0.70
2023-04-21T13:33:43.089Z,1.48
2023-04-21T13:36:12.877Z,0.85
2023-04-21T13:38:40.877Z,0.50
2023-04-21T13:41:08.205Z,0.43
2023-04-21T13:43:35.162Z,0.70
2023-04-21T13:46:02.320Z,1.13
2023-04-21T13:48:29.787Z,1.48
2023-04-21T13:50:56.559Z,1.15
2023-04-21T13:53:23.515Z,0.38
2023-04-21T13:55:54.927Z,0.60
2023-04-21T13:58:22.266Z,0.60
2023-04-21T14:00:50.635Z,1.42
2023-04-21T14:03:18.317Z,1.05
2023-04-21T14:05:45.495Z,0.82
2023-04-21T14:08:37.729Z,1.10
2023-04-21T14:11:05.913Z,0.65
2023-04-21T14:13:38.160Z,0.52
2023-04-21T14:16:09.436Z,0.40
2023-04-21T14:18:37.804Z,0.77
2023-04-21T14:21:04.696Z,1.42
2023-04-21T14:23:31.529Z,0.60
2023-04-21T14:25:58.606Z,0.75
2023-04-21T14:28:25.360Z,0.45
2023-04-21T14:30:52.038Z,1.05
2023-04-21T14:33:18.802Z,0.45
2023-04-21T14:35:46.248Z,0.68
2023-04-21T14:38:13.205Z,1.42
2023-04-21T14:40:41.911Z,0.63
2023-04-21T14:43:11.665Z,0.63
2023-04-21T14:45:38.752Z,0.85
2023-04-21T14:48:05.822Z,0.47
2023-04-21T14:50:33.029Z,0.57
2023-04-21T14:52:59.718Z,0.65
2023-04-21T14:55:26.516Z,0.60
2023-04-21T14:57:55.164Z,0.50
2023-04-21T15:00:23.558Z,0.90
2023-04-21T15:02:50.352Z,0.85
2023-04-21T15:05:18.645Z,0.60
2023-04-21T15:07:45.783Z,0.63
2023-04-21T15:10:12.945Z,1.35
2023-04-21T15:12:41.046Z,0.65
2023-04-21T15:15:08.240Z,1.15
2023-04-21T15:17:34.928Z,0.50
2023-04-21T15:20:01.729Z,0.98
2023-04-21T15:22:28.509Z,1.08
2023-04-21T15:24:55.312Z,0.65
2023-04-21T15:27:22.105Z,0.95
2023-04-21T15:29:49.260Z,0.70
2023-04-21T15:32:16.027Z,0.40
2023-04-21T15:34:43.892Z,0.43
2023-04-21T15:37:10.585Z,0.40
2023-04-21T15:39:41.576Z,1.20
2023-04-21T15:42:09.510Z,0.77
2023-04-21T15:44:40.529Z,0.93
2023-04-21T15:47:07.314Z,0.45
2023-04-21T15:49:34.217Z,1.35
2023-04-21T15:52:02.973Z,0.85
2023-04-21T15:54:29.736Z,0.95
2023-04-21T15:56:57.595Z,0.60
2023-04-21T15:59:25.909Z,0.52
2023-04-21T16:01:53.193Z,1.23
2023-04-21T16:04:20.679Z,0.70
2023-04-21T16:06:47.573Z,0.50
2023-04-21T16:09:15.185Z,0.82
2023-04-21T16:11:42.734Z,0.75
2023-04-21T16:14:09.598Z,0.40
2023-04-21T16:16:37.397Z,0.50
2023-04-21T16:19:04.194Z,0.40
2023-04-21T16:21:31.643Z,1.27
2023-04-21T16:24:00.684Z,0.68
2023-04-21T16:26:27.533Z,0.73
2023-04-21T16:28:55.515Z,0.82
2023-04-21T16:31:22.377Z,0.55
2023-04-21T16:33:49.443Z,0.65
2023-04-21T16:36:16.519Z,0.80
2023-04-21T16:38:44.745Z,0.60
2023-04-21T16:41:12.648Z,1.02
2023-04-21T16:43:39.837Z,0.68
2023-04-21T16:46:06.591Z,0.50
2023-04-21T16:48:33.445Z,1.35
2023-04-21T16:51:00.358Z,1.15
2023-04-21T16:53:27.109Z,0.55
2023-04-21T16:55:53.976Z,1.05
2023-04-21T16:58:22.019Z,1.20
2023-04-21T17:00:51.732Z,0.30
2023-04-21T17:03:18.603Z,0.80
2023-04-21T17:05:47.993Z,0.40
2023-04-21T17:08:14.621Z,0.40
2023-04-21T17:10:41.256Z,0.60
2023-04-21T17:13:07.870Z,0.57
2023-04-21T17:15:34.711Z,1.08
2023-04-21T17:18:01.513Z,0.95
2023-04-21T17:20:28.337Z,0.45
2023-04-21T17:22:54.936Z,0.68
2023-04-21T17:25:21.710Z,0.50
2023-04-21T17:27:48.380Z,0.30
2023-04-21T17:30:15.185Z,0.50
2023-04-21T17:32:41.989Z,0.60
2023-04-21T17:35:09.296Z,0.98
2023-04-21T17:37:36.134Z,0.63
2023-04-21T17:40:03.957Z,1.35
2023-04-21T17:42:30.919Z,0.65
2023-04-21T17:44:57.579Z,0.82
2023-04-21T17:47:24.400Z,0.73
2023-04-21T17:49:51.221Z,0.38
2023-04-21T17:52:17.915Z,1.25
2023-04-21T17:54:45.549Z,0.60
2023-04-21T17:57:12.212Z,0.57
2023-04-21T17:59:39.653Z,1.10
2023-04-21T18:02:07.663Z,0.60
2023-04-21T18:04:34.933Z,0.57
2023-04-21T18:07:02.436Z,0.80
2023-04-21T18:09:29.105Z,1.08
2023-04-21T18:11:58.961Z,1.38
2023-04-21T18:14:26.151Z,0.40
2023-04-21T18:16:53.462Z,0.95
2023-04-21T18:19:20.218Z,0.60
2023-04-21T18:21:46.840Z,0.90
2023-04-21T18:24:13.769Z,0.70
2023-04-21T18:26:40.527Z,0.60
2023-04-21T18:29:08.547Z,0.73
2023-04-21T18:31:35.304Z,0.80
2023-04-21T18:34:02.045Z,1.98
2023-04-21T18:36:31.601Z,0.80
2023-04-21T18:38:59.681Z,1.40
2023-04-21T18:41:27.666Z,1.52
2023-04-21T18:43:56.002Z,0.85
2023-04-21T18:46:22.800Z,0.40
2023-04-21T18:48:49.714Z,1.20
2023-04-21T18:51:17.033Z,1.20
2023-04-21T18:53:43.723Z,1.20
2023-04-21T18:56:10.446Z,0.47
2023-04-21T18:58:37.378Z,1.90
2023-04-21T19:01:05.589Z,1.00
2023-04-21T19:03:32.664Z,1.70
2023-04-21T19:06:00.103Z,0.77
2023-04-21T19:08:41.186Z,0.50
2023-04-21T19:11:11.709Z,0.47
2023-04-21T19:13:38.995Z,0.65
2023-04-21T19:16:05.999Z,0.80
2023-04-21T19:18:33.246Z,0.90
2023-04-21T19:21:00.310Z,0.77
2023-04-21T19:23:27.007Z,0.45
2023-04-21T19:25:58.356Z,0.60
2023-04-21T19:28:25.149Z,0.73
2023-04-21T19:30:51.872Z,0.55
2023-04-21T19:33:18.995Z,0.73
2023-04-21T19:35:46.192Z,0.40
2023-04-21T19:38:13.300Z,0.82
2023-04-21T19:40:42.267Z,1.58
2023-04-21T19:43:09.088Z,0.88
2023-04-21T19:45:37.527Z,1.05
2023-04-21T19:48:05.292Z,1.35
2023-04-21T19:50:32.457Z,1.25
2023-04-21T19:52:59.123Z,0.77
2023-04-21T19:55:26.917Z,0.63
2023-04-21T19:57:54.669Z,1.25
2023-04-21T20:00:21.740Z,0.52
2023-04-21T20:02:49.214Z,0.50
2023-04-21T20:05:16.363Z,0.80
2023-04-21T20:07:43.352Z,0.73
2023-04-21T20:10:10.662Z,0.95
2023-04-21T20:12:38.669Z,1.13
2023-04-21T20:15:05.925Z,1.35
2023-04-21T20:17:34.519Z,0.85
2023-04-21T20:20:03.260Z,0.50
2023-04-21T20:22:29.892Z,1.52
2023-04-21T20:24:57.918Z,1.67
2023-04-21T20:27:25.476Z,0.60
2023-04-21T20:29:53.679Z,0.95
2023-04-21T20:32:20.733Z,1.15
2023-04-21T20:34:47.399Z,0.95
2023-04-21T20:37:14.413Z,0.52
2023-04-21T20:39:41.415Z,0.60
2023-04-21T20:42:13.582Z,2.10
2023-04-21T20:44:42.704Z,0.73
2023-04-21T20:47:10.471Z,0.63
2023-04-21T20:49:37.810Z,0.60
2023-04-21T20:52:04.817Z,1.00
2023-04-21T20:54:34.581Z,0.32
2023-04-21T20:57:02.275Z,0.70
2023-04-21T20:59:29.260Z,1.77
2023-04-21T21:01:56.533Z,1.70
2023-04-21T21:04:23.530Z,0.50
2023-04-21T21:06:51.700Z,1.17
2023-04-21T21:09:18.998Z,0.60
2023-04-21T21:11:45.903Z,0.65
2023-04-21T21:14:13.884Z,0.75
2023-04-21T21:16:40.962Z,0.40
2023-04-21T21:19:09.298Z,0.70
2023-04-21T21:21:35.996Z,0.40
2023-04-21T21:24:02.880Z,0.60
2023-04-21T21:26:29.577Z,0.98
2023-04-21T21:28:57.096Z,0.60
2023-04-21T21:31:25.452Z,0.40
2023-04-21T21:33:52.712Z,1.33
2023-04-21T21:36:19.493Z,0.98
2023-04-21T21:38:46.332Z,0.80
2023-04-21T21:41:14.326Z,1.42
2023-04-21T21:43:41.479Z,0.50
2023-04-21T21:46:08.874Z,0.63
2023-04-21T21:48:35.881Z,0.70
2023-04-21T21:51:03.409Z,0.50
2023-04-21T21:53:31.183Z,0.50
2023-04-21T21:55:59.790Z,0.77
2023-04-21T21:58:26.745Z,0.57
2023-04-21T22:00:53.638Z,0.50
2023-04-21T22:03:21.401Z,1.00
2023-04-21T22:05:48.441Z,0.40
2023-04-21T22:08:16.107Z,1.60
2023-04-21T22:10:43.728Z,0.60
2023-04-21T22:13:11.584Z,1.67
2023-04-21T22:15:38.799Z,0.70
2023-04-21T22:18:08.477Z,0.63
2023-04-21T22:20:36.555Z,0.55
2023-04-21T22:23:04.349Z,1.27
2023-04-21T22:25:31.178Z,1.77
2023-04-21T22:27:58.668Z,0.70
2023-04-21T22:30:25.950Z,1.15
2023-04-21T22:32:53.623Z,0.55
2023-04-21T22:35:21.161Z,0.50
2023-04-21T22:37:48.034Z,0.55
2023-04-21T22:40:14.733Z,0.52
2023-04-21T22:42:41.839Z,0.60
2023-04-21T22:45:11.106Z,0.52
2023-04-21T22:47:37.778Z,0.70
2023-04-21T22:50:07.148Z,0.50
2023-04-21T22:52:34.957Z,0.68
2023-04-21T22:55:01.815Z,0.68
2023-04-21T22:57:28.498Z,1.02
2023-04-21T22:59:55.500Z,0.38
2023-04-21T23:02:22.860Z,1.10
2023-04-21T23:04:49.801Z,0.68
2023-04-21T23:07:18.684Z,1.15
2023-04-21T23:09:47.783Z,0.57
2023-04-21T23:12:14.428Z,0.45
2023-04-21T23:14:41.097Z,2.22
2023-04-21T23:17:09.726Z,0.68
2023-04-21T23:19:36.866Z,0.70
2023-04-21T23:22:03.811Z,0.88
2023-04-21T23:24:31.065Z,0.95
2023-04-21T23:26:57.865Z,0.73
2023-04-21T23:29:25.120Z,1.70
2023-04-21T23:31:51.864Z,0.90
2023-04-21T23:34:18.615Z,0.80
2023-04-21T23:36:45.261Z,0.77
2023-04-21T23:39:11.948Z,1.17
2023-04-21T23:41:38.686Z,0.75
2023-04-21T23:44:05.776Z,0.65
2023-04-21T23:46:32.921Z,3.00
2023-04-21T23:48:59.776Z,0.63
2023-04-21T23:51:27.179Z,1.13
2023-04-21T23:53:53.866Z,0.70
2023-04-21T23:56:20.853Z,1.10
2023-04-21T23:58:47.653Z,0.93
